Time;durP1;ratioP1;P1;durP2;ratioP2;P2;SDS_P1;SDS_P2;PMS_P1;PMS_P2;Temp;Humidity;BMP_temperature;BMP_pressure;BME280_temperature;BME280_humidity;BME280_pressure;Samples;Min_cycle;Max_cycle;Signal;HPM_P1;HPM_P2
2021/11/01 00:00:07;;;;;;;;;;;;;;;8.94;100.00;99491.22;5153105;27;20010;-70
2021/11/01 00:02:33;;;;;;;;;;;;;;;8.85;100.00;99499.19;5152861;27;19929;-70
2021/11/01 00:04:59;;;;;;;;;;;;;;;8.87;100.00;99494.50;5151698;27;20366;-70
2021/11/01 00:07:25;;;;;;;;;;;;;;;8.85;100.00;99488.38;5152837;27;20034;-70
2021/11/01 00:09:52;;;;;;;;;;;;;;;8.84;100.00;99491.22;5152603;27;20021;-70
2021/11/01 00:12:18;;;;;;;;;;;;;;;8.84;100.00;99491.22;5152963;27;20018;-71
2021/11/01 00:14:45;;;;;;;;;;;;;;;8.90;100.00;99489.78;5152534;27;20003;-70
2021/11/01 00:17:12;;;;;;;;;;;;;;;8.93;100.00;99494.94;5152983;27;20038;-70
2021/11/01 00:19:39;;;;;;;;;;;;;;;8.92;100.00;99474.28;5152701;27;19923;-71
2021/11/01 00:22:05;;;;;;;;;;;;;;;8.95;100.00;99476.69;5152575;27;19972;-70
2021/11/01 00:24:31;;;;;;;;;;;;;;;8.94;100.00;99469.56;5152893;27;19935;-70
2021/11/01 00:26:58;;;;;;;;;;;;;;;8.94;100.00;99466.84;5152851;27;20022;-70
2021/11/01 00:29:24;;;;;;;;;;;;;;;8.93;100.00;99465.16;5152822;27;20021;-70
2021/11/01 00:31:51;;;;;;;;;;;;;;;8.95;100.00;99461.31;5152446;27;20362;-70
2021/11/01 00:34:19;;;;;;;;;;;;;;;8.95;100.00;99472.16;5152459;27;19923;-70
2021/11/01 00:36:46;;;;;;;;;;;;;;;9.02;100.00;99467.00;5152568;27;19977;-71
2021/11/01 00:39:12;;;;;;;;;;;;;;;9.04;100.00;99471.25;5152714;27;20018;-70
2021/11/01 00:41:38;;;;;;;;;;;;;;;9.04;100.00;99467.69;5151022;27;20364;-70
2021/11/01 00:44:05;;;;;;;;;;;;;;;8.99;100.00;99465.44;5152389;27;20025;-70
2021/11/01 00:46:32;;;;;;;;;;;;;;;8.97;100.00;99458.47;5155441;27;20408;-70
2021/11/01 00:48:58;;;;;;;;;;;;;;;8.95;100.00;99461.31;5156717;27;19923;-70
2021/11/01 00:51:26;;;;;;;;;;;;;;;8.93;100.00;99459.75;5156239;27;19923;-70
2021/11/01 00:53:52;;;;;;;;;;;;;;;8.87;100.00;99467.44;5156700;27;20349;-70
2021/11/01 00:56:18;;;;;;;;;;;;;;;8.83;100.00;99467.88;5156764;27;19927;-71
2021/11/01 00:58:45;;;;;;;;;;;;;;;8.80;100.00;99462.75;5156610;27;20296;-70
2021/11/01 01:01:14;;;;;;;;;;;;;;;8.78;100.00;99457.50;5156255;27;19923;-70
2021/11/01 01:03:42;;;;;;;;;;;;;;;8.74;100.00;99453.38;5156439;27;19963;-70
2021/11/01 01:06:08;;;;;;;;;;;;;;;8.74;100.00;99452.50;5156338;27;19923;-70
2021/11/01 01:08:36;;;;;;;;;;;;;;;8.70;100.00;99451.94;5156334;27;20022;-70
2021/11/01 01:11:02;;;;;;;;;;;;;;;8.70;100.00;99441.97;5156023;27;20021;-70
2021/11/01 01:13:35;;;;;;;;;;;;;;;8.64;100.00;99439.81;5156302;27;19927;-70
2021/11/01 01:16:08;;;;;;;;;;;;;;;8.62;100.00;99439.13;5156180;27;19923;-70
2021/11/01 01:18:36;;;;;;;;;;;;;;;8.60;100.00;99422.19;5156547;27;19945;-70
2021/11/01 01:22:11;;;;;;;;;;;;;;;8.57;100.00;99421.63;5156244;27;19949;-70
2021/11/01 01:23:50;;;;;;;;;;;;;;;8.49;100.00;99417.78;5156075;27;19923;-71
2021/11/01 01:26:16;;;;;;;;;;;;;;;8.44;100.00;99416.47;5155925;27;20013;-71
2021/11/01 01:28:43;;;;;;;;;;;;;;;8.44;100.00;99408.38;5155745;27;19927;-70
2021/11/01 01:31:10;;;;;;;;;;;;;;;8.44;100.00;99409.19;5155743;27;20034;-71
2021/11/01 01:33:37;;;;;;;;;;;;;;;8.44;100.00;99403.78;5154724;27;19966;-70
2021/11/01 01:36:03;;;;;;;;;;;;;;;8.49;100.00;99390.72;5155971;27;20407;-70
2021/11/01 01:38:30;;;;;;;;;;;;;;;8.48;100.00;99394.44;5155795;27;19966;-70
2021/11/01 01:40:58;;;;;;;;;;;;;;;8.42;100.00;99388.72;5155717;27;20010;-69
2021/11/01 01:43:24;;;;;;;;;;;;;;;8.40;100.00;99388.00;5155433;27;20391;-70
2021/11/01 01:45:51;;;;;;;;;;;;;;;8.35;100.00;99380.31;5155736;27;20370;-70
2021/11/01 01:48:19;;;;;;;;;;;;;;;8.33;100.00;99380.47;5156036;27;19923;-69
2021/11/01 01:50:46;;;;;;;;;;;;;;;8.37;100.00;99389.16;5155391;27;19923;-70
2021/11/01 01:53:13;;;;;;;;;;;;;;;8.32;100.00;99389.56;5155783;27;20018;-69
2021/11/01 01:55:39;;;;;;;;;;;;;;;8.25;100.00;99399.25;5155605;27;20524;-69
2021/11/01 01:58:07;;;;;;;;;;;;;;;8.22;100.00;99383.31;5155674;27;19923;-69
2021/11/01 02:00:48;;;;;;;;;;;;;;;8.18;100.00;99390.84;5154813;27;20368;-69
2021/11/01 02:03:17;;;;;;;;;;;;;;;8.14;100.00;99392.13;5155432;27;20350;-70
2021/11/01 02:05:46;;;;;;;;;;;;;;;8.10;100.00;99390.72;5155696;27;20030;-70
2021/11/01 02:08:14;;;;;;;;;;;;;;;8.07;100.00;99382.91;5155095;27;19955;-69
2021/11/01 02:10:44;;;;;;;;;;;;;;;8.07;100.00;99382.91;5155251;27;20036;-69
2021/11/01 02:13:15;;;;;;;;;;;;;;;8.06;100.00;99383.88;5154926;27;19977;-69
2021/11/01 02:15:44;;;;;;;;;;;;;;;7.98;100.00;99367.53;5155518;27;19931;-69
2021/11/01 02:18:11;;;;;;;;;;;;;;;7.94;100.00;99374.22;5154718;27;20005;-69
2021/11/01 02:20:39;;;;;;;;;;;;;;;7.91;100.00;99369.94;5155092;27;20395;-70
2021/11/01 02:23:12;;;;;;;;;;;;;;;7.84;100.00;99371.47;5154830;27;19930;-69
2021/11/01 02:25:41;;;;;;;;;;;;;;;7.86;100.00;99373.06;5153578;27;20296;-69
2021/11/01 02:28:09;;;;;;;;;;;;;;;7.84;100.00;99357.97;5154850;27;19968;-70
2021/11/01 02:30:35;;;;;;;;;;;;;;;7.84;100.00;99375.06;5154665;27;19976;-70
2021/11/01 02:33:02;;;;;;;;;;;;;;;7.80;100.00;99376.34;5154907;27;19986;-70
2021/11/01 02:35:28;;;;;;;;;;;;;;;7.79;100.00;99363.81;5154331;27;19999;-70
2021/11/01 02:37:57;;;;;;;;;;;;;;;7.81;100.00;99356.41;5153599;27;20413;-70
2021/11/01 02:40:26;;;;;;;;;;;;;;;7.83;100.00;99357.13;5154348;27;19983;-69
2021/11/01 02:42:54;;;;;;;;;;;;;;;7.84;100.00;99341.75;5154684;27;19930;-70
2021/11/01 02:45:20;;;;;;;;;;;;;;;7.81;100.00;99342.91;5154624;27;19923;-70
2021/11/01 02:47:46;;;;;;;;;;;;;;;7.84;100.00;99339.06;5154668;27;19926;-69
2021/11/01 02:50:14;;;;;;;;;;;;;;;7.89;100.00;99334.09;5154598;27;19927;-70
2021/11/01 02:52:40;;;;;;;;;;;;;;;7.90;100.00;99343.03;5154002;27;19973;-70
2021/11/01 02:55:07;;;;;;;;;;;;;;;7.87;100.00;99331.53;5154383;27;19927;-69
2021/11/01 02:57:34;;;;;;;;;;;;;;;7.90;100.00;99327.69;5154213;27;19931;-69
2021/11/01 03:00:02;;;;;;;;;;;;;;;7.90;100.00;99330.41;5154282;27;19944;-70
2021/11/01 03:02:28;;;;;;;;;;;;;;;7.87;100.00;99336.09;5154006;27;20392;-69
2021/11/01 03:04:54;;;;;;;;;;;;;;;7.84;100.00;99331.81;5154329;27;20606;-70
2021/11/01 03:07:22;;;;;;;;;;;;;;;7.83;100.00;99326.53;5154072;27;19966;-69
2021/11/01 03:09:48;;;;;;;;;;;;;;;7.80;100.00;99333.09;5153175;27;20384;-70
2021/11/01 03:12:16;;;;;;;;;;;;;;;7.82;100.00;99330.25;5153566;27;20003;-70
2021/11/01 03:14:48;;;;;;;;;;;;;;;7.79;100.00;99328.69;5153489;27;20555;-70
2021/11/01 03:17:18;;;;;;;;;;;;;;;7.74;100.00;99324.69;5152697;27;19923;-70
2021/11/01 03:19:48;;;;;;;;;;;;;;;7.71;100.00;99321.28;5153467;27;19923;-70
2021/11/01 03:22:15;;;;;;;;;;;;;;;7.70;100.00;99322.28;5153825;27;20392;-70
2021/11/01 03:24:42;;;;;;;;;;;;;;;7.65;100.00;99315.59;5153828;27;19927;-69
2021/11/01 03:27:10;;;;;;;;;;;;;;;7.60;100.00;99316.00;5153777;27;19972;-69
2021/11/01 03:29:37;;;;;;;;;;;;;;;7.61;100.00;99314.16;5153528;27;20045;-69
2021/11/01 03:32:06;;;;;;;;;;;;;;;7.59;100.00;99317.00;5153285;27;19958;-69
2021/11/01 03:34:34;;;;;;;;;;;;;;;7.63;100.00;99306.75;5153567;27;20048;-70
2021/11/01 03:37:04;;;;;;;;;;;;;;;7.72;100.00;99308.63;5153424;27;20022;-70
2021/11/01 03:39:31;;;;;;;;;;;;;;;7.76;100.00;99312.75;5153512;27;19934;-69
2021/11/01 03:41:58;;;;;;;;;;;;;;;7.70;100.00;99324.13;5153205;27;19933;-69
2021/11/01 03:44:28;;;;;;;;;;;;;;;7.70;100.00;99319.56;5153608;27;20018;-69
2021/11/01 03:46:55;;;;;;;;;;;;;;;7.73;100.00;99314.91;5153558;27;19931;-70
2021/11/01 03:49:23;;;;;;;;;;;;;;;7.71;100.00;99318.59;5152750;27;19992;-70
2021/11/01 03:52:02;;;;;;;;;;;;;;;7.71;100.00;99324.00;5153194;27;19930;-70
2021/11/01 03:54:28;;;;;;;;;;;;;;;7.64;100.00;99320.16;5153254;27;20014;-70
2021/11/01 03:56:55;;;;;;;;;;;;;;;7.61;100.00;99327.66;5153319;27;19951;-70
2021/11/01 03:59:21;;;;;;;;;;;;;;;7.58;100.00;99317.16;5153009;27;20014;-69
2021/11/01 04:01:48;;;;;;;;;;;;;;;7.59;100.00;99324.25;5152905;27;19970;-69
2021/11/01 04:04:16;;;;;;;;;;;;;;;7.62;100.00;99324.81;5153004;27;19923;-69
2021/11/01 04:06:42;;;;;;;;;;;;;;;7.58;100.00;99323.41;5153010;27;19966;-70
2021/11/01 04:09:11;;;;;;;;;;;;;;;7.55;100.00;99326.38;5153039;27;19923;-69
2021/11/01 04:11:39;;;;;;;;;;;;;;;7.51;100.00;99333.91;5152439;27;19962;-69
2021/11/01 04:14:11;;;;;;;;;;;;;;;7.46;100.00;99329.94;5153085;27;19955;-69
2021/11/01 04:16:41;;;;;;;;;;;;;;;7.42;100.00;99329.34;5152702;27;19934;-69
2021/11/01 04:19:30;;;;;;;;;;;;;;;7.41;100.00;99324.91;5152949;27;19923;-70
2021/11/01 04:21:57;;;;;;;;;;;;;;;7.45;100.00;99328.22;5152211;27;19927;-70
2021/11/01 04:24:29;;;;;;;;;;;;;;;7.45;100.00;99329.06;5152742;27;20014;-70
2021/11/01 04:26:55;;;;;;;;;;;;;;;7.40;100.00;99327.75;5152330;27;19923;-70
2021/11/01 04:29:22;;;;;;;;;;;;;;;7.41;100.00;99333.03;5152796;27;19933;-70
2021/11/01 04:31:54;;;;;;;;;;;;;;;7.39;100.00;99343.13;5152419;27;20415;-70
2021/11/01 04:34:28;;;;;;;;;;;;;;;7.38;100.00;99353.03;5152648;27;19930;-71
2021/11/01 04:36:56;;;;;;;;;;;;;;;7.31;100.00;99361.81;5152714;27;19929;-70
2021/11/01 04:39:29;;;;;;;;;;;;;;;7.25;100.00;99346.19;5152461;27;19987;-70
2021/11/01 04:42:14;;;;;;;;;;;;;;;7.23;100.00;99338.25;5152224;27;20092;-70
2021/11/01 04:52:52;;;;;;;;;;;;;;;7.17;100.00;99345.03;5152380;27;20382;-70
2021/11/01 04:53:10;;;;;;;;;;;;;;;7.03;100.00;99346.25;5153057;27;19974;-69
2021/11/01 04:55:38;;;;;;;;;;;;;;;6.96;100.00;99346.94;5152299;27;19923;-69
2021/11/01 04:58:05;;;;;;;;;;;;;;;6.92;100.00;99345.50;5152507;27;19927;-69
2021/11/01 05:00:32;;;;;;;;;;;;;;;6.89;100.00;99351.16;5151865;27;19923;-69
2021/11/01 05:03:02;;;;;;;;;;;;;;;6.90;100.00;99344.78;5150868;27;19927;-69
2021/11/01 05:05:28;;;;;;;;;;;;;;;6.91;100.00;99350.03;5152499;27;19970;-69
2021/11/01 05:07:58;;;;;;;;;;;;;;;6.89;100.00;99360.09;5151989;27;19923;-69
2021/11/01 05:10:27;;;;;;;;;;;;;;;6.86;100.00;99358.53;5151985;27;20413;-69
2021/11/01 05:12:54;;;;;;;;;;;;;;;6.84;100.00;99355.13;5152041;27;19923;-69
2021/11/01 05:15:32;;;;;;;;;;;;;;;6.87;100.00;99362.09;5152255;27;19923;-69
2021/11/01 05:18:00;;;;;;;;;;;;;;;6.82;100.00;99353.53;5152053;27;19931;-69
2021/11/01 05:20:32;;;;;;;;;;;;;;;6.82;100.00;99361.63;5151837;27;20046;-69
2021/11/01 05:23:08;;;;;;;;;;;;;;;6.78;100.00;99368.28;5152474;27;20399;-70
2021/11/01 05:25:39;;;;;;;;;;;;;;;6.76;100.00;99375.66;5152320;27;19951;-69
2021/11/01 05:28:11;;;;;;;;;;;;;;;6.70;100.00;99374.34;5152206;27;19929;-69
2021/11/01 05:30:41;;;;;;;;;;;;;;;6.60;100.00;99371.59;5152000;27;19931;-69
2021/11/01 05:33:27;;;;;;;;;;;;;;;6.63;100.00;99373.19;5155807;27;19977;-69
2021/11/01 05:35:54;;;;;;;;;;;;;;;6.66;100.00;99373.75;5155505;27;19934;-69
2021/11/01 05:38:20;;;;;;;;;;;;;;;6.65;100.00;99371.19;5155856;27;19923;-69
2021/11/01 05:40:47;;;;;;;;;;;;;;;6.72;100.00;99372.38;5155542;27;20422;-70
2021/11/01 05:43:13;;;;;;;;;;;;;;;6.80;100.00;99369.00;5155552;27;19938;-70
2021/11/01 05:45:41;;;;;;;;;;;;;;;6.93;100.00;99375.03;5155272;27;20022;-69
2021/11/01 05:48:07;;;;;;;;;;;;;;;7.01;100.00;99377.06;5155569;27;19971;-70
2021/11/01 05:50:36;;;;;;;;;;;;;;;7.06;100.00;99374.81;5155191;27;20030;-69
2021/11/01 05:53:06;;;;;;;;;;;;;;;7.14;100.00;99369.59;5152270;27;20383;-69
2021/11/01 05:55:39;;;;;;;;;;;;;;;7.22;100.00;99378.88;5154983;27;19930;-70
2021/11/01 05:58:12;;;;;;;;;;;;;;;7.26;100.00;99364.09;5155256;27;19923;-70
2021/11/01 06:03:29;;;;;;;;;;;;;;;7.31;100.00;99367.22;5138506;27;19927;-70
2021/11/01 06:06:16;;;;;;;;;;;;;;;7.35;100.00;99363.28;5155385;27;20003;-70
2021/11/01 06:08:55;;;;;;;;;;;;;;;7.38;100.00;99377.34;5153180;27;19923;-71
2021/11/01 06:14:06;;;;;;;;;;;;;;;7.48;100.00;99377.41;5152361;27;19930;-70
2021/11/01 06:16:34;;;;;;;;;;;;;;;7.55;100.00;99383.09;5144891;27;19986;-68
2021/11/01 06:19:00;;;;;;;;;;;;;;;7.60;100.00;99371.88;5155262;27;19926;-67
2021/11/01 06:21:27;;;;;;;;;;;;;;;7.67;100.00;99376.59;5154366;27;19923;-68
2021/11/01 06:23:55;;;;;;;;;;;;;;;7.74;100.00;99382.28;5151406;27;19923;-67
2021/11/01 06:26:22;;;;;;;;;;;;;;;7.80;100.00;99389.84;5154708;27;19976;-68
2021/11/01 06:28:52;;;;;;;;;;;;;;;7.83;100.00;99399.47;5154995;27;20027;-67
2021/11/01 06:31:22;;;;;;;;;;;;;;;7.87;100.00;99409.88;5153764;27;19935;-67
2021/11/01 06:42:19;;;;;;;;;;;;;;;8.12;100.00;99413.03;5153786;27;19927;-67
2021/11/01 06:44:56;;;;;;;;;;;;;;;8.17;100.00;99408.06;5150356;27;19970;-67
2021/11/01 06:50:11;;;;;;;;;;;;;;;8.37;100.00;99425.16;5134048;27;19941;-66
2021/11/01 06:53:10;;;;;;;;;;;;;;;8.47;100.00;99424.31;5149298;27;19953;-66
2021/11/01 06:58:35;;;;;;;;;;;;;;;8.60;100.00;99429.44;5148758;27;20209;-66
2021/11/01 07:14:51;;;;;;;;;;;;;;;9.08;100.00;99460.16;5151091;27;19923;-66
2021/11/01 07:17:25;;;;;;;;;;;;;;;9.11;100.00;99465.25;5152276;27;20272;-66
2021/11/01 07:20:14;;;;;;;;;;;;;;;9.14;100.00;99465.84;5152636;27;19957;-66
2021/11/01 08:20:33;;;;;;;;;;;;;;;10.47;100.00;99515.28;5150527;27;19938;-65
2021/11/01 08:26:22;;;;;;;;;;;;;;;10.51;100.00;99502.28;5137994;27;19923;-65
2021/11/01 08:35:09;;;;;;;;;;;;;;;10.54;100.00;99529.97;5152806;27;19923;-66
2021/11/01 08:40:43;;;;;;;;;;;;;;;10.58;100.00;99518.81;5149868;27;20407;-66
2021/11/01 08:43:22;;;;;;;;;;;;;;;10.63;100.00;99516.47;5148923;27;19923;-66
2021/11/01 08:46:09;;;;;;;;;;;;;;;10.71;100.00;99509.25;5150372;27;20010;-66
2021/11/01 08:51:58;;;;;;;;;;;;;;;10.87;100.00;99530.28;5093006;28;20465;-66
2021/11/01 09:02:53;;;;;;;;;;;;;;;11.38;100.00;99548.69;5113381;28;19931;-66
2021/11/01 09:05:38;;;;;;;;;;;;;;;11.43;100.00;99546.34;5131719;27;20083;-66
2021/11/01 09:08:21;;;;;;;;;;;;;;;11.43;100.00;99548.22;5153106;27;19929;-66
2021/11/01 09:19:48;;;;;;;;;;;;;;;11.60;100.00;99550.03;5091704;28;20019;-65
2021/11/01 09:22:41;;;;;;;;;;;;;;;11.59;100.00;99561.91;5091350;28;19931;-65
2021/11/01 09:25:19;;;;;;;;;;;;;;;11.64;100.00;99561.44;5125404;27;19946;-65
2021/11/01 09:27:55;;;;;;;;;;;;;;;11.69;100.00;99569.94;5135130;27;19927;-66
2021/11/01 09:36:04;;;;;;;;;;;;;;;11.80;100.00;99569.69;5113964;27;20034;-67
2021/11/01 09:41:14;;;;;;;;;;;;;;;11.79;100.00;99581.56;5144367;27;19933;-65
2021/11/01 09:43:43;;;;;;;;;;;;;;;11.78;100.00;99588.00;5155170;27;20370;-65
2021/11/01 09:46:10;;;;;;;;;;;;;;;11.75;100.00;99593.78;5155180;27;19953;-66
2021/11/01 09:48:38;;;;;;;;;;;;;;;11.77;100.00;99597.22;5155063;27;20264;-65
2021/11/01 09:51:06;;;;;;;;;;;;;;;11.79;100.00;99600.59;5155341;27;19935;-65
2021/11/01 09:53:39;;;;;;;;;;;;;;;11.84;100.00;99598.25;5150600;27;19934;-65
2021/11/01 09:56:18;;;;;;;;;;;;;;;11.85;100.00;99599.97;5155237;27;19966;-65
2021/11/01 10:01:28;;;;;;;;;;;;;;;11.84;100.00;99605.56;5154902;27;20022;-65
2021/11/01 10:03:55;;;;;;;;;;;;;;;11.88;100.00;99594.22;5152394;27;19930;-65
2021/11/01 10:06:23;;;;;;;;;;;;;;;12.00;100.00;99593.97;5154219;27;20403;-65
2021/11/01 10:08:50;;;;;;;;;;;;;;;12.10;100.00;99596.56;5149953;27;19927;-66
2021/11/01 10:11:17;;;;;;;;;;;;;;;12.17;100.00;99592.19;5154449;27;19984;-65
2021/11/01 10:13:46;;;;;;;;;;;;;;;12.22;100.00;99590.66;5146505;27;19926;-65
2021/11/01 10:19:09;;;;;;;;;;;;;;;12.45;100.00;99581.91;5141728;27;19958;-66
2021/11/01 10:21:37;;;;;;;;;;;;;;;12.51;100.00;99578.53;5137161;27;19996;-66
2021/11/01 10:24:03;;;;;;;;;;;;;;;12.49;100.00;99566.09;5133769;27;19954;-66
2021/11/01 10:26:30;;;;;;;;;;;;;;;12.50;100.00;99573.25;5134126;27;19924;-65
2021/11/01 10:29:06;;;;;;;;;;;;;;;12.48;100.00;99573.44;5142468;27;19923;-65
2021/11/01 10:31:42;;;;;;;;;;;;;;;12.45;100.00;99571.03;5154480;27;19930;-65
2021/11/01 10:34:10;;;;;;;;;;;;;;;12.44;100.00;99572.06;5154849;27;20018;-65
2021/11/01 10:36:43;;;;;;;;;;;;;;;12.47;100.00;99560.84;5154558;27;20015;-65
2021/11/01 10:39:12;;;;;;;;;;;;;;;12.48;100.00;99557.09;5151928;27;19929;-65
2021/11/01 10:41:45;;;;;;;;;;;;;;;12.51;100.00;99573.09;5152205;27;20556;-66
2021/11/01 10:44:22;;;;;;;;;;;;;;;12.40;100.00;99567.97;5155747;27;20404;-66
2021/11/01 10:58:23;;;;;;;;;;;;;;;12.18;100.00;99588.44;5080129;28;20388;-65
2021/11/01 11:12:04;;;;;;;;;;;;;;;12.84;100.00;99588.66;5087179;28;19936;-66
2021/11/01 11:14:34;;;;;;;;;;;;;;;12.96;100.00;99591.91;5086832;28;19928;-66
2021/11/01 11:17:13;;;;;;;;;;;;;;;13.10;100.00;99595.88;5087510;28;19928;-66
2021/11/01 11:22:40;;;;;;;;;;;;;;;13.16;100.00;99593.31;5044281;28;19933;-66
2021/11/01 11:28:06;;;;;;;;;;;;;;;13.11;100.00;99590.25;5084255;28;19924;-65
2021/11/01 11:33:41;;;;;;;;;;;;;;;13.10;100.00;99584.97;5076074;28;19983;-65
2021/11/01 11:47:16;;;;;;;;;;;;;;;12.98;100.00;99592.63;5086726;28;19931;-65
2021/11/01 11:49:43;;;;;;;;;;;;;;;13.00;100.00;99598.72;5088242;28;19932;-73
2021/11/01 11:52:11;;;;;;;;;;;;;;;13.06;100.00;99598.91;5086057;28;19978;-73
2021/11/01 11:54:42;;;;;;;;;;;;;;;12.99;100.00;99595.16;5086816;28;19924;-73
2021/11/01 11:57:17;;;;;;;;;;;;;;;12.92;100.00;99601.44;5086708;28;19950;-73
2021/11/01 11:59:46;;;;;;;;;;;;;;;12.98;100.00;99601.63;5078774;28;19986;-73
2021/11/01 12:02:14;;;;;;;;;;;;;;;12.88;100.00;99595.47;5073131;28;19928;-73
2021/11/01 12:04:45;;;;;;;;;;;;;;;12.89;100.00;99591.72;5073105;28;19964;-73
2021/11/01 12:07:13;;;;;;;;;;;;;;;12.89;100.00;99586.28;5073073;28;19924;-73
2021/11/01 12:09:53;;;;;;;;;;;;;;;12.98;100.00;99581.72;5072242;28;19928;-73
2021/11/01 12:12:40;;;;;;;;;;;;;;;13.02;100.00;99581.19;5072533;28;19933;-72
2021/11/01 12:17:51;;;;;;;;;;;;;;;12.81;100.00;99575.38;5072986;28;19924;-73
2021/11/01 12:20:20;;;;;;;;;;;;;;;12.69;100.00;99569.41;5072964;28;19924;-73
2021/11/01 12:22:49;;;;;;;;;;;;;;;12.63;100.00;99575.53;5072673;28;19925;-73
2021/11/01 12:25:21;;;;;;;;;;;;;;;12.61;100.00;99567.50;5069227;28;19924;-72
2021/11/01 12:28:01;;;;;;;;;;;;;;;12.60;100.00;99576.72;5071985;28;20386;-73
2021/11/01 12:30:34;;;;;;;;;;;;;;;12.51;100.00;99567.66;5072319;28;19929;-73
2021/11/01 12:33:02;;;;;;;;;;;;;;;12.51;100.00;99572.25;5072989;28;19924;-73
2021/11/01 12:35:30;;;;;;;;;;;;;;;12.42;100.00;99573.25;5072931;28;19928;-72
2021/11/01 12:38:04;;;;;;;;;;;;;;;12.40;100.00;99570.69;5073096;28;19959;-73
2021/11/01 12:40:43;;;;;;;;;;;;;;;12.41;100.00;99572.38;5072545;28;19959;-72
2021/11/01 12:49:07;;;;;;;;;;;;;;;12.31;100.00;99586.13;5067978;28;20033;-73
2021/11/01 12:57:14;;;;;;;;;;;;;;;12.12;100.00;99575.47;5062207;28;19924;-73
2021/11/01 12:59:43;;;;;;;;;;;;;;;12.14;100.00;99576.19;5072281;28;19955;-72
2021/11/01 13:02:15;;;;;;;;;;;;;;;12.13;100.00;99580.78;5072247;28;20416;-72
2021/11/01 13:04:42;;;;;;;;;;;;;;;12.17;100.00;99578.56;5070891;28;19978;-72
2021/11/01 13:07:21;;;;;;;;;;;;;;;12.19;100.00;99580.13;5059010;28;20306;-72
2021/11/01 13:09:52;;;;;;;;;;;;;;;12.18;100.00;99585.72;5072268;28;19924;-72
2021/11/01 13:18:11;;;;;;;;;;;;;;;12.09;100.00;99603.03;5049340;28;20027;-71
2021/11/01 13:20:39;;;;;;;;;;;;;;;12.02;100.00;99605.53;5063056;28;19925;-71
2021/11/01 13:23:06;;;;;;;;;;;;;;;12.00;100.00;99615.75;5071563;28;19951;-71
2021/11/01 13:25:38;;;;;;;;;;;;;;;11.93;100.00;99610.03;5071852;28;19925;-72
2021/11/01 13:36:38;;;;;;;;;;;;;;;11.75;100.00;99612.81;5071514;28;20535;-73
2021/11/01 13:39:06;;;;;;;;;;;;;;;11.79;100.00;99613.34;5071294;28;19925;-73
2021/11/01 13:41:32;;;;;;;;;;;;;;;11.79;100.00;99606.03;5051213;28;19928;-73
2021/11/01 13:44:11;;;;;;;;;;;;;;;11.78;100.00;99607.03;5051920;28;20359;-73
2021/11/01 13:46:43;;;;;;;;;;;;;;;11.78;100.00;99592.63;5067313;28;19978;-73
2021/11/01 13:49:09;;;;;;;;;;;;;;;11.79;100.00;99595.16;5069172;28;19924;-73
2021/11/01 13:51:36;;;;;;;;;;;;;;;11.78;100.00;99598.88;5071355;28;20401;-72
2021/11/01 13:54:07;;;;;;;;;;;;;;;11.73;100.00;99595.78;5071121;28;19963;-72
2021/11/01 13:56:40;;;;;;;;;;;;;;;11.71;100.00;99597.84;5071360;28;20449;-73
2021/11/01 13:59:25;;;;;;;;;;;;;;;11.74;100.00;99597.50;5071011;28;19936;-73
2021/11/01 14:02:12;;;;;;;;;;;;;;;11.76;100.00;99594.63;5071268;28;19925;-74
2021/11/01 14:12:59;;;;;;;;;;;;;;;11.66;100.00;99595.59;5070763;28;20011;-72
2021/11/01 14:15:51;;;;;;;;;;;;;;;11.62;100.00;99590.63;5070999;28;19955;-74
2021/11/01 14:18:40;;;;;;;;;;;;;;;11.57;100.00;99601.97;5070530;28;19924;-73
2021/11/01 14:29:48;;;;;;;;;;;;;;;11.25;100.00;99603.44;5070533;28;19936;-73
2021/11/01 14:32:35;;;;;;;;;;;;;;;11.12;100.00;99603.81;5070408;28;20715;-73
2021/11/01 15:16:19;;;;;;;;;;;;;;;9.97;100.00;99654.00;5044395;28;19935;-73
2021/11/01 15:18:58;;;;;;;;;;;;;;;9.93;100.00;99661.56;5068322;28;19952;-72
2021/11/01 15:21:33;;;;;;;;;;;;;;;9.93;100.00;99660.69;5068583;28;19924;-72
2021/11/01 15:38:06;;;;;;;;;;;;;;;9.77;100.00;99664.88;5069071;28;19955;-72
2021/11/01 16:17:02;;;;;;;;;;;;;;;9.70;100.00;99661.00;5072461;28;19967;-72
2021/11/01 16:19:34;;;;;;;;;;;;;;;9.69;100.00;99657.44;5072967;28;19928;-67
2021/11/01 16:22:01;;;;;;;;;;;;;;;9.68;100.00;99661.16;5071571;28;20032;-67
2021/11/01 16:24:28;;;;;;;;;;;;;;;9.69;100.00;99657.44;5071482;28;19936;-67
2021/11/01 16:26:56;;;;;;;;;;;;;;;9.66;100.00;99654.16;5072688;28;20472;-68
2021/11/01 16:29:29;;;;;;;;;;;;;;;9.65;100.00;99660.63;5071990;28;19959;-68
2021/11/01 16:31:59;;;;;;;;;;;;;;;9.63;100.00;99668.84;5072242;28;19925;-68
2021/11/01 16:34:30;;;;;;;;;;;;;;;9.61;100.00;99672.75;5072717;28;20274;-68
2021/11/01 16:37:13;;;;;;;;;;;;;;;9.60;100.00;99671.03;5072628;28;20028;-68
2021/11/01 16:39:48;;;;;;;;;;;;;;;9.59;100.00;99667.44;5071399;28;20598;-67
2021/11/01 16:42:17;;;;;;;;;;;;;;;9.59;100.00;99675.56;5072559;28;19979;-67
2021/11/01 16:44:46;;;;;;;;;;;;;;;9.59;100.00;99672.00;5071751;28;19963;-68
2021/11/01 16:47:13;;;;;;;;;;;;;;;9.59;100.00;99672.00;5071618;28;19924;-68
2021/11/01 16:49:40;;;;;;;;;;;;;;;9.58;100.00;99675.72;5072632;28;19982;-67
2021/11/01 16:52:15;;;;;;;;;;;;;;;9.57;100.00;99679.41;5071879;28;19956;-67
2021/11/01 16:54:41;;;;;;;;;;;;;;;9.55;100.00;99680.44;5072288;28;19948;-67
2021/11/01 16:57:13;;;;;;;;;;;;;;;9.57;100.00;99676.72;5072247;28;19924;-68
2021/11/01 16:59:48;;;;;;;;;;;;;;;9.57;100.00;99676.72;5064023;28;19931;-68
2021/11/01 17:05:04;;;;;;;;;;;;;;;9.55;100.00;99675.03;5071078;28;19924;-67
2021/11/01 17:07:43;;;;;;;;;;;;;;;9.54;100.00;99678.72;5072078;28;19956;-68
2021/11/01 17:21:37;;;;;;;;;;;;;;;9.53;100.00;99665.31;5071494;28;19971;-68
2021/11/01 17:24:08;;;;;;;;;;;;;;;9.51;100.00;99667.31;5071373;28;19960;-68
2021/11/01 17:26:46;;;;;;;;;;;;;;;9.50;100.00;99677.31;5070807;28;19931;-68
2021/11/01 17:29:37;;;;;;;;;;;;;;;9.50;100.00;99673.72;5071510;28;20473;-68
2021/11/01 17:35:04;;;;;;;;;;;;;;;9.50;100.00;99669.19;5071759;28;19935;-67
2021/11/01 17:37:38;;;;;;;;;;;;;;;9.50;100.00;99661.06;5071821;28;20451;-67
2021/11/01 18:38:24;;;;;;;;;;;;;;;9.19;100.00;99673.88;5070567;28;19932;-70
2021/11/01 18:40:57;;;;;;;;;;;;;;;9.18;100.00;99674.88;5070507;28;19924;-70
2021/11/01 18:50:48;;;;;;;;;;;;;;;9.16;100.00;99677.72;5037191;28;19925;-70
2021/11/01 18:52:20;;;;;;;;;;;;;;;9.11;100.00;99665.59;5069472;28;20324;-70
2021/11/01 18:54:53;;;;;;;;;;;;;;;9.09;100.00;99662.19;5070703;28;19925;-70
2021/11/01 18:57:25;;;;;;;;;;;;;;;9.04;100.00;99657.19;5070514;28;19947;-69
2021/11/01 18:59:52;;;;;;;;;;;;;;;9.02;100.00;99662.75;5070438;28;19964;-70
2021/11/01 19:02:40;;;;;;;;;;;;;;;9.02;100.00;99661.91;5070365;28;20393;-69
2021/11/01 19:05:11;;;;;;;;;;;;;;;9.00;100.00;99663.88;5070246;28;19925;-69
2021/11/01 19:07:43;;;;;;;;;;;;;;;8.99;100.00;99663.03;5070586;28;19925;-69
2021/11/01 19:10:35;;;;;;;;;;;;;;;8.98;100.00;99665.84;5069730;28;19924;-70
2021/11/01 20:03:19;;;;;;;;;;;;;;;8.69;100.00;99672.94;5072819;28;19930;-69
2021/11/01 20:05:49;;;;;;;;;;;;;;;8.68;100.00;99675.78;5073420;28;19930;-69
2021/11/01 20:13:55;;;;;;;;;;;;;;;8.63;100.00;99680.75;5073492;28;19936;-69
2021/11/01 20:16:52;;;;;;;;;;;;;;;8.62;100.00;99688.00;5072695;28;19932;-70
2021/11/01 21:25:47;;;;;;;;;;;;;;;8.49;100.00;99652.25;5072296;28;20030;-67
2021/11/01 21:28:13;;;;;;;;;;;;;;;8.48;100.00;99653.22;5104203;28;20002;-67
2021/11/01 21:30:40;;;;;;;;;;;;;;;8.47;100.00;99656.91;5071758;28;19964;-69
2021/11/01 21:33:14;;;;;;;;;;;;;;;8.45;100.00;99650.78;5070885;28;19924;-68
2021/11/01 21:35:47;;;;;;;;;;;;;;;8.43;100.00;99644.63;5071695;28;19924;-67
2021/11/01 21:38:15;;;;;;;;;;;;;;;8.40;100.00;99647.63;5071424;28;19972;-67
2021/11/01 21:40:43;;;;;;;;;;;;;;;8.37;100.00;99649.59;5070518;28;20039;-68
2021/11/01 21:43:09;;;;;;;;;;;;;;;8.35;100.00;99643.47;5071510;28;19978;-67
2021/11/01 21:45:35;;;;;;;;;;;;;;;8.31;100.00;99644.75;5071421;28;20381;-68
2021/11/01 21:48:02;;;;;;;;;;;;;;;8.28;100.00;99647.69;5071640;28;20439;-68